Date,TemperatureHighF,TemperatureAvgF,TemperatureLowF,DewpointHighF,DewpointAvgF,DewpointLowF,HumidityHigh,HumidityAvg,HumidityLow,PressureMaxIn,PressureMinIn,WindSpeedMaxMPH,WindSpeedAvgMPH,GustSpeedMaxMPH,PrecipitationSumIn
2013-9-1,79.5,68.4,60.9,62.3,56.8,52.1,88,67,51,29.90,29.85,3,1,4,0.00
2013-9-2,79.5,66.7,59.5,63.2,58.9,56.1,90,77,54,29.92,29.84,6,1,8,0.00
2013-9-3,78.3,64.8,57.3,57.1,52.8,47.6,91,67,43,29.96,29.89,4,1,5,0.00
2013-9-4,77.5,63.5,56.3,58.3,51.8,46.2,79,66,50,29.98,29.93,5,1,7,0.00
2013-9-5,75.6,62.0,53.6,57.2,52.1,47.9,90,71,51,29.98,29.93,6,2,7,0.00
2013-9-6,89.1,74.7,58.2,56.8,47.0,30.6,69,39,22,29.95,29.80,3,1,4,0.00
2013-9-7,87.1,74.4,66.5,57.6,49.6,38.5,67,42,32,29.84,29.78,3,1,4,0.00
2013-9-8,79.3,68.7,57.1,60.2,47.8,32.8,74,48,30,29.83,29.75,3,1,5,0.00
2013-9-17,63.7,56.4,51.4,51.8,50.1,48.5,91,80,60,29.88,29.86,10,4,23,0.00
2013-9-18,79.1,63.9,50.8,54.8,48.6,42.7,93,60,29,29.87,29.81,9,2,14,0.00
2013-9-19,86.1,71.5,64.5,54.2,39.7,22.7,61,34,18,29.82,29.73,2,1,4,0.00
2013-9-20,71.8,60.1,50.5,58.4,50.3,36.9,90,72,36,29.88,29.74,4,1,7,0.00
2013-9-21,63.9,58.0,51.4,58.8,54.8,49.7,96,89,74,29.91,29.82,14,3,18,0.28
2013-9-22,54.6,53.2,51.3,50.6,49.5,48.6,94,87,82,29.92,29.90,4,1,6,0.00
2013-9-23,77.6,69.6,62.2,56.3,53.2,47.3,71,57,41,29.96,29.88,8,3,11,0.00
2013-9-24,63.8,61.2,57.7,52.6,49.4,47.7,76,66,57,29.93,29.89,4,0,5,0.00
2013-9-27,74.4,66.1,57.0,40.4,34.5,27.7,43,32,21,30.06,29.99,9,2,11,0.00
2013-9-28,79.4,66.2,57.4,45.7,35.6,27.6,53,33,22,30.05,29.98,3,0,5,0.00
2013-9-29,76.6,65.7,55.7,58.2,44.9,24.9,86,51,22,30.05,30.01,4,1,5,0.00
2013-9-30,74.6,63.0,55.7,60.3,53.9,45.3,87,73,59,30.05,29.93,7,2,11,0.00